Sunday, July 22, 2018, 12:53 PM GMT
Back to Local

CWBZ, St Anicet

Location: , , Canada Lat: 45.117
Local Time: 12:53 PM GMT (12:53 GMT) Lon: -74.283
Time Zone: GMT Elev: 160 ft

Show me the last for .
Show Coded

Time T Td Feel RH Dir Speed Gust Alt SLP Vis Weather Sky Remarks
2018-07-22 12:00 61 56 - 82 60° 8 - - 30.00 0 None
2018-07-22 11:00 65 53 - 64 70° 7 - - 29.97 0 None
2018-07-22 10:00 64 53 - 68 70° 7 - - 29.97 0 None
2018-07-22 09:00 63 53 - 69 70° 6 - - 29.98 0 None
2018-07-22 08:00 63 55 - 76 80° 5 - - 29.99 0 None
2018-07-22 07:00 64 55 - 73 80° 6 - - 29.99 0 None
2018-07-22 06:00 60 55 - 83 50° 5 - - 30.00 0 None
2018-07-22 05:00 58 55 - 90 80° 2 - - 30.01 0 None
2018-07-22 04:00 60 56 - 87 110° 2 - - 30.01 0 None
2018-07-22 03:00 66 57 - 72 60° 5 - - 30.01 0 None
2018-07-22 02:00 70 56 - 62 90° 2 - - 29.99 0 None
2018-07-22 01:00 73 57 77 56 90° 2 - - 29.99 0 None
2018-07-22 00:00 79 55 79 43 80° 6 - - 29.98 0 None
2018-07-21 23:00 83 56 83 40 90° 7 - - 29.97 0 None
2018-07-21 22:00 84 54 - 35 100° 8 - - 29.98 0 None
2018-07-21 21:00 85 55 - 35 100° 8 - - 29.99 0 None
2018-07-21 20:00 85 54 - 34 100° 8 17 - 30.00 0 None
2018-07-21 19:00 84 61 85 45 90° 8 - - 30.01 0 None
2018-07-21 18:00 84 58 84 41 100° 7 - - 30.02 0 None
2018-07-21 17:00 84 58 84 42 100° 6 - - 30.03 0 None
2018-07-21 16:00 81 57 82 43 80° 5 - - 30.05 0 None
2018-07-21 15:00 80 59 81 48 90° 7 - - 30.06 0 None
2018-07-21 14:00 81 60 82 47 170° 1 - - 30.07 0 None
2018-07-21 13:00 79 59 80 51 140° 5 - - 30.07 0 None

Support USWX by starting your Amazon purchase here.